Lochristi, Belgium
Current Conditions -  °F | °C
As of 7:25 PM on Thursday 30 Oct 2014 (Local Time) from EHFS Reporting Station
Clear Clear  
Wind Chill: 59°   Ceiling: Unl
Heat Index: 59°   Visibility: 6mi
Dew Point: 57°   Wind: 14mph
Humidity: 94%   Direction: 180°S
Pressure: 30.15"   Gusts: NA
Location:  51.1°N, 3.83°E
Report Text: EHFS 301825Z AUTO 18012KT 9000 NSC 15/14 Q1021
Loading
Personal Weather Stations






























Interactive Weather Map
Tropical Storm Tracking
New forecast layout! Learn more

10-Day Weather Forecast

Advertisements
Track Severe Weather on mobile